sensor_id;sensor_type;location;lat;lon;timestamp;P1;durP1;ratioP1;P2;durP2;ratioP2
4971;SDS011;2501;51.214;6.768;2023-04-15T00:00:45;10.10;;;5.20;;
4971;SDS011;2501;51.214;6.768;2023-04-15T00:03:15;14.13;;;5.50;;
4971;SDS011;2501;51.214;6.768;2023-04-15T00:05:43;8.68;;;4.57;;
4971;SDS011;2501;51.214;6.768;2023-04-15T00:08:14;14.70;;;5.43;;
4971;SDS011;2501;51.214;6.768;2023-04-15T00:10:43;12.85;;;5.72;;
4971;SDS011;2501;51.214;6.768;2023-04-15T00:13:11;11.60;;;5.93;;
4971;SDS011;2501;51.214;6.768;2023-04-15T00:15:40;10.30;;;5.20;;
4971;SDS011;2501;51.214;6.768;2023-04-15T00:18:09;14.45;;;5.40;;
4971;SDS011;2501;51.214;6.768;2023-04-15T00:20:37;8.90;;;5.40;;
4971;SDS011;2501;51.214;6.768;2023-04-15T00:23:06;10.43;;;5.68;;
4971;SDS011;2501;51.214;6.768;2023-04-15T00:25:37;11.35;;;5.43;;
4971;SDS011;2501;51.214;6.768;2023-04-15T00:28:05;11.40;;;5.32;;
4971;SDS011;2501;51.214;6.768;2023-04-15T00:30:34;11.27;;;5.10;;
4971;SDS011;2501;51.214;6.768;2023-04-15T00:33:03;9.07;;;5.53;;
4971;SDS011;2501;51.214;6.768;2023-04-15T00:35:32;9.53;;;5.40;;
4971;SDS011;2501;51.214;6.768;2023-04-15T00:38:00;7.75;;;5.07;;
4971;SDS011;2501;51.214;6.768;2023-04-15T00:40:29;10.23;;;5.22;;
4971;SDS011;2501;51.214;6.768;2023-04-15T00:43:00;12.00;;;4.93;;
4971;SDS011;2501;51.214;6.768;2023-04-15T00:45:29;9.07;;;5.68;;
4971;SDS011;2501;51.214;6.768;2023-04-15T00:47:58;13.98;;;5.45;;
4971;SDS011;2501;51.214;6.768;2023-04-15T00:50:27;13.40;;;5.30;;
4971;SDS011;2501;51.214;6.768;2023-04-15T00:52:55;8.77;;;4.97;;
4971;SDS011;2501;51.214;6.768;2023-04-15T00:55:23;10.15;;;5.13;;
4971;SDS011;2501;51.214;6.768;2023-04-15T00:57:52;8.82;;;4.82;;
4971;SDS011;2501;51.214;6.768;2023-04-15T01:00:23;8.43;;;5.20;;
4971;SDS011;2501;51.214;6.768;2023-04-15T01:02:52;13.80;;;5.20;;
4971;SDS011;2501;51.214;6.768;2023-04-15T01:05:20;10.15;;;5.03;;
4971;SDS011;2501;51.214;6.768;2023-04-15T01:07:49;9.07;;;5.20;;
4971;SDS011;2501;51.214;6.768;2023-04-15T01:10:17;10.67;;;5.20;;
4971;SDS011;2501;51.214;6.768;2023-04-15T01:12:46;13.45;;;5.40;;
4971;SDS011;2501;51.214;6.768;2023-04-15T01:15:14;15.88;;;5.85;;
4971;SDS011;2501;51.214;6.768;2023-04-15T01:17:45;11.15;;;5.40;;
4971;SDS011;2501;51.214;6.768;2023-04-15T01:20:14;10.15;;;5.75;;
4971;SDS011;2501;51.214;6.768;2023-04-15T01:22:43;10.50;;;4.90;;
4971;SDS011;2501;51.214;6.768;2023-04-15T01:25:14;10.15;;;5.35;;
4971;SDS011;2501;51.214;6.768;2023-04-15T01:27:48;7.10;;;5.07;;
4971;SDS011;2501;51.214;6.768;2023-04-15T01:30:17;10.05;;;5.50;;
4971;SDS011;2501;51.214;6.768;2023-04-15T01:32:45;10.02;;;5.20;;
4971;SDS011;2501;51.214;6.768;2023-04-15T01:35:14;8.20;;;4.90;;
4971;SDS011;2501;51.214;6.768;2023-04-15T01:37:42;9.73;;;5.47;;
4971;SDS011;2501;51.214;6.768;2023-04-15T01:40:11;10.02;;;5.18;;
4971;SDS011;2501;51.214;6.768;2023-04-15T01:42:40;12.80;;;5.10;;
4971;SDS011;2501;51.214;6.768;2023-04-15T01:45:11;13.88;;;5.75;;
4971;SDS011;2501;51.214;6.768;2023-04-15T01:47:40;12.25;;;6.32;;
4971;SDS011;2501;51.214;6.768;2023-04-15T01:50:09;16.30;;;5.20;;
4971;SDS011;2501;51.214;6.768;2023-04-15T01:52:38;7.95;;;4.78;;
4971;SDS011;2501;51.214;6.768;2023-04-15T01:55:07;11.90;;;5.45;;
4971;SDS011;2501;51.214;6.768;2023-04-15T01:57:35;12.13;;;5.72;;
4971;SDS011;2501;51.214;6.768;2023-04-15T02:00:04;14.20;;;5.70;;
4971;SDS011;2501;51.214;6.768;2023-04-15T02:02:37;8.43;;;5.55;;
4971;SDS011;2501;51.214;6.768;2023-04-15T02:05:05;10.55;;;5.72;;
4971;SDS011;2501;51.214;6.768;2023-04-15T02:07:35;9.00;;;5.50;;
4971;SDS011;2501;51.214;6.768;2023-04-15T02:10:03;10.80;;;5.53;;
4971;SDS011;2501;51.214;6.768;2023-04-15T02:12:33;7.30;;;5.47;;
4971;SDS011;2501;51.214;6.768;2023-04-15T02:15:01;9.95;;;5.70;;
4971;SDS011;2501;51.214;6.768;2023-04-15T02:17:32;10.63;;;5.40;;
4971;SDS011;2501;51.214;6.768;2023-04-15T02:20:04;14.80;;;5.85;;
4971;SDS011;2501;51.214;6.768;2023-04-15T02:22:34;8.43;;;5.00;;
4971;SDS011;2501;51.214;6.768;2023-04-15T02:25:03;9.17;;;5.67;;
4971;SDS011;2501;51.214;6.768;2023-04-15T02:27:32;14.65;;;6.00;;
4971;SDS011;2501;51.214;6.768;2023-04-15T02:30:01;15.63;;;5.80;;
4971;SDS011;2501;51.214;6.768;2023-04-15T02:32:29;12.45;;;6.32;;
4971;SDS011;2501;51.214;6.768;2023-04-15T02:35:00;12.23;;;7.60;;
4971;SDS011;2501;51.214;6.768;2023-04-15T02:37:34;12.93;;;7.10;;
4971;SDS011;2501;51.214;6.768;2023-04-15T02:40:07;10.00;;;7.15;;
4971;SDS011;2501;51.214;6.768;2023-04-15T02:42:37;9.52;;;6.90;;
4971;SDS011;2501;51.214;6.768;2023-04-15T02:45:06;14.52;;;7.60;;
4971;SDS011;2501;51.214;6.768;2023-04-15T02:47:36;13.40;;;7.13;;
4971;SDS011;2501;51.214;6.768;2023-04-15T02:50:09;13.43;;;6.40;;
4971;SDS011;2501;51.214;6.768;2023-04-15T02:52:39;12.18;;;6.63;;
4971;SDS011;2501;51.214;6.768;2023-04-15T02:55:08;13.50;;;6.80;;
4971;SDS011;2501;51.214;6.768;2023-04-15T02:57:37;8.40;;;6.70;;
4971;SDS011;2501;51.214;6.768;2023-04-15T03:00:07;9.38;;;6.60;;
4971;SDS011;2501;51.214;6.768;2023-04-15T03:02:37;7.43;;;6.20;;
4971;SDS011;2501;51.214;6.768;2023-04-15T03:05:10;11.15;;;6.90;;
4971;SDS011;2501;51.214;6.768;2023-04-15T03:07:39;13.57;;;7.40;;
4971;SDS011;2501;51.214;6.768;2023-04-15T03:10:08;12.25;;;7.38;;
4971;SDS011;2501;51.214;6.768;2023-04-15T03:12:37;14.75;;;7.55;;
4971;SDS011;2501;51.214;6.768;2023-04-15T03:15:06;11.18;;;7.13;;
4971;SDS011;2501;51.214;6.768;2023-04-15T03:17:35;10.88;;;6.68;;
4971;SDS011;2501;51.214;6.768;2023-04-15T03:20:04;12.32;;;6.50;;
4971;SDS011;2501;51.214;6.768;2023-04-15T03:22:37;11.63;;;7.70;;
4971;SDS011;2501;51.214;6.768;2023-04-15T03:25:05;12.07;;;7.60;;
4971;SDS011;2501;51.214;6.768;2023-04-15T03:27:34;11.45;;;7.70;;
4971;SDS011;2501;51.214;6.768;2023-04-15T03:30:02;10.00;;;6.78;;
4971;SDS011;2501;51.214;6.768;2023-04-15T03:32:31;11.95;;;6.63;;
4971;SDS011;2501;51.214;6.768;2023-04-15T03:35:00;15.93;;;6.80;;
4971;SDS011;2501;51.214;6.768;2023-04-15T03:37:28;13.00;;;6.95;;
4971;SDS011;2501;51.214;6.768;2023-04-15T03:39:59;9.97;;;6.67;;
4971;SDS011;2501;51.214;6.768;2023-04-15T03:42:29;10.00;;;6.35;;
4971;SDS011;2501;51.214;6.768;2023-04-15T03:44:58;12.07;;;6.00;;
4971;SDS011;2501;51.214;6.768;2023-04-15T03:47:26;12.45;;;6.00;;
4971;SDS011;2501;51.214;6.768;2023-04-15T03:49:55;13.82;;;6.60;;
4971;SDS011;2501;51.214;6.768;2023-04-15T03:52:23;11.63;;;7.07;;
4971;SDS011;2501;51.214;6.768;2023-04-15T03:54:51;10.68;;;7.07;;
4971;SDS011;2501;51.214;6.768;2023-04-15T03:57:22;14.33;;;6.10;;
4971;SDS011;2501;51.214;6.768;2023-04-15T03:59:51;9.63;;;6.60;;
4971;SDS011;2501;51.214;6.768;2023-04-15T04:02:19;9.35;;;6.28;;
4971;SDS011;2501;51.214;6.768;2023-04-15T04:04:48;8.60;;;6.28;;
4971;SDS011;2501;51.214;6.768;2023-04-15T04:07:16;9.27;;;6.20;;
4971;SDS011;2501;51.214;6.768;2023-04-15T04:09:45;11.48;;;6.40;;
4971;SDS011;2501;51.214;6.768;2023-04-15T04:12:13;15.80;;;7.10;;
4971;SDS011;2501;51.214;6.768;2023-04-15T04:14:44;10.88;;;6.80;;
4971;SDS011;2501;51.214;6.768;2023-04-15T04:17:13;8.90;;;7.10;;
4971;SDS011;2501;51.214;6.768;2023-04-15T04:19:41;9.50;;;7.30;;
4971;SDS011;2501;51.214;6.768;2023-04-15T04:22:09;13.53;;;7.53;;
4971;SDS011;2501;51.214;6.768;2023-04-15T04:24:38;11.82;;;7.57;;
4971;SDS011;2501;51.214;6.768;2023-04-15T04:27:06;11.68;;;6.80;;
4971;SDS011;2501;51.214;6.768;2023-04-15T04:29:35;10.90;;;6.68;;
4971;SDS011;2501;51.214;6.768;2023-04-15T04:32:06;10.30;;;7.13;;
4971;SDS011;2501;51.214;6.768;2023-04-15T04:34:34;13.05;;;6.95;;
4971;SDS011;2501;51.214;6.768;2023-04-15T04:37:02;8.75;;;6.70;;
4971;SDS011;2501;51.214;6.768;2023-04-15T04:39:31;11.60;;;6.80;;
4971;SDS011;2501;51.214;6.768;2023-04-15T04:42:00;11.00;;;6.60;;
4971;SDS011;2501;51.214;6.768;2023-04-15T04:44:28;9.10;;;6.40;;
4971;SDS011;2501;51.214;6.768;2023-04-15T04:46:57;12.48;;;6.88;;
4971;SDS011;2501;51.214;6.768;2023-04-15T04:49:28;12.87;;;6.40;;
4971;SDS011;2501;51.214;6.768;2023-04-15T04:51:56;10.95;;;7.50;;
4971;SDS011;2501;51.214;6.768;2023-04-15T04:54:25;14.15;;;7.40;;
4971;SDS011;2501;51.214;6.768;2023-04-15T04:56:55;10.18;;;6.95;;
4971;SDS011;2501;51.214;6.768;2023-04-15T04:59:24;10.77;;;7.55;;
4971;SDS011;2501;51.214;6.768;2023-04-15T05:01:52;15.50;;;8.30;;
4971;SDS011;2501;51.214;6.768;2023-04-15T05:04:21;10.82;;;7.40;;
4971;SDS011;2501;51.214;6.768;2023-04-15T05:06:52;12.82;;;8.25;;
4971;SDS011;2501;51.214;6.768;2023-04-15T05:09:21;18.13;;;8.20;;
4971;SDS011;2501;51.214;6.768;2023-04-15T05:11:49;16.73;;;8.30;;
4971;SDS011;2501;51.214;6.768;2023-04-15T05:14:18;11.83;;;7.80;;
4971;SDS011;2501;51.214;6.768;2023-04-15T05:16:46;18.33;;;8.50;;
4971;SDS011;2501;51.214;6.768;2023-04-15T05:19:14;11.32;;;8.52;;
4971;SDS011;2501;51.214;6.768;2023-04-15T05:21:43;13.77;;;8.35;;
4971;SDS011;2501;51.214;6.768;2023-04-15T05:24:14;15.10;;;8.45;;
4971;SDS011;2501;51.214;6.768;2023-04-15T05:26:42;15.25;;;9.45;;
4971;SDS011;2501;51.214;6.768;2023-04-15T05:29:11;14.52;;;8.25;;
4971;SDS011;2501;51.214;6.768;2023-04-15T05:31:39;13.55;;;8.80;;
4971;SDS011;2501;51.214;6.768;2023-04-15T05:34:08;13.57;;;9.65;;
4971;SDS011;2501;51.214;6.768;2023-04-15T05:36:37;14.35;;;9.65;;
4971;SDS011;2501;51.214;6.768;2023-04-15T05:39:05;14.40;;;9.17;;
4971;SDS011;2501;51.214;6.768;2023-04-15T05:41:36;20.33;;;9.85;;
4971;SDS011;2501;51.214;6.768;2023-04-15T05:44:05;14.52;;;9.05;;
4971;SDS011;2501;51.214;6.768;2023-04-15T05:46:33;19.88;;;10.88;;
4971;SDS011;2501;51.214;6.768;2023-04-15T05:49:02;15.15;;;9.48;;
4971;SDS011;2501;51.214;6.768;2023-04-15T05:51:30;16.92;;;9.35;;
4971;SDS011;2501;51.214;6.768;2023-04-15T05:53:58;20.45;;;10.35;;
4971;SDS011;2501;51.214;6.768;2023-04-15T05:56:27;15.95;;;10.40;;
4971;SDS011;2501;51.214;6.768;2023-04-15T05:58:58;13.75;;;10.32;;
4971;SDS011;2501;51.214;6.768;2023-04-15T06:01:26;20.55;;;10.55;;
4971;SDS011;2501;51.214;6.768;2023-04-15T06:03:55;24.45;;;11.10;;
4971;SDS011;2501;51.214;6.768;2023-04-15T06:06:23;14.87;;;10.30;;
4971;SDS011;2501;51.214;6.768;2023-04-15T06:08:52;14.82;;;9.90;;
4971;SDS011;2501;51.214;6.768;2023-04-15T06:11:20;17.75;;;11.07;;
4971;SDS011;2501;51.214;6.768;2023-04-15T06:13:48;14.15;;;10.20;;
4971;SDS011;2501;51.214;6.768;2023-04-15T06:16:19;15.33;;;10.60;;
4971;SDS011;2501;51.214;6.768;2023-04-15T06:18:48;18.40;;;11.30;;
4971;SDS011;2501;51.214;6.768;2023-04-15T06:21:16;17.40;;;11.70;;
4971;SDS011;2501;51.214;6.768;2023-04-15T06:23:45;18.30;;;11.57;;
4971;SDS011;2501;51.214;6.768;2023-04-15T06:26:13;17.57;;;11.00;;
4971;SDS011;2501;51.214;6.768;2023-04-15T06:28:42;17.63;;;12.07;;
4971;SDS011;2501;51.214;6.768;2023-04-15T06:31:10;17.80;;;12.05;;
4971;SDS011;2501;51.214;6.768;2023-04-15T06:33:41;16.45;;;11.52;;
4971;SDS011;2501;51.214;6.768;2023-04-15T06:36:10;19.48;;;11.02;;
4971;SDS011;2501;51.214;6.768;2023-04-15T06:38:38;20.10;;;12.32;;
4971;SDS011;2501;51.214;6.768;2023-04-15T06:41:07;15.13;;;11.10;;
4971;SDS011;2501;51.214;6.768;2023-04-15T06:43:35;21.30;;;13.23;;
4971;SDS011;2501;51.214;6.768;2023-04-15T06:46:04;18.15;;;12.10;;
4971;SDS011;2501;51.214;6.768;2023-04-15T06:48:32;19.90;;;12.07;;
4971;SDS011;2501;51.214;6.768;2023-04-15T06:51:04;19.10;;;11.90;;
4971;SDS011;2501;51.214;6.768;2023-04-15T06:53:32;17.08;;;11.15;;
4971;SDS011;2501;51.214;6.768;2023-04-15T06:56:05;16.00;;;11.40;;
4971;SDS011;2501;51.214;6.768;2023-04-15T06:58:35;18.02;;;11.40;;
4971;SDS011;2501;51.214;6.768;2023-04-15T07:01:03;16.73;;;10.40;;
4971;SDS011;2501;51.214;6.768;2023-04-15T07:03:32;16.25;;;10.73;;
4971;SDS011;2501;51.214;6.768;2023-04-15T07:06:00;17.45;;;11.10;;
4971;SDS011;2501;51.214;6.768;2023-04-15T07:08:33;15.70;;;11.00;;
4971;SDS011;2501;51.214;6.768;2023-04-15T07:11:01;14.20;;;10.30;;
4971;SDS011;2501;51.214;6.768;2023-04-15T07:13:30;11.48;;;9.48;;
4971;SDS011;2501;51.214;6.768;2023-04-15T07:15:59;12.77;;;9.43;;
4971;SDS011;2501;51.214;6.768;2023-04-15T07:18:28;12.90;;;9.95;;
4971;SDS011;2501;51.214;6.768;2023-04-15T07:20:56;11.70;;;9.70;;
4971;SDS011;2501;51.214;6.768;2023-04-15T07:23:25;10.43;;;8.25;;
4971;SDS011;2501;51.214;6.768;2023-04-15T07:25:56;7.50;;;6.80;;
4971;SDS011;2501;51.214;6.768;2023-04-15T07:28:25;8.00;;;6.17;;
4971;SDS011;2501;51.214;6.768;2023-04-15T07:30:53;12.82;;;8.18;;
4971;SDS011;2501;51.214;6.768;2023-04-15T07:33:22;8.73;;;7.63;;
4971;SDS011;2501;51.214;6.768;2023-04-15T07:35:50;13.27;;;7.00;;
4971;SDS011;2501;51.214;6.768;2023-04-15T07:38:19;9.25;;;6.90;;
4971;SDS011;2501;51.214;6.768;2023-04-15T07:40:48;18.35;;;7.30;;
4971;SDS011;2501;51.214;6.768;2023-04-15T07:43:19;14.13;;;7.70;;
4971;SDS011;2501;51.214;6.768;2023-04-15T07:45:48;9.98;;;7.00;;
4971;SDS011;2501;51.214;6.768;2023-04-15T07:48:17;11.65;;;6.40;;
4971;SDS011;2501;51.214;6.768;2023-04-15T07:50:45;8.13;;;6.37;;
4971;SDS011;2501;51.214;6.768;2023-04-15T07:53:14;7.75;;;6.60;;
4971;SDS011;2501;51.214;6.768;2023-04-15T07:55:42;8.77;;;6.30;;
4971;SDS011;2501;51.214;6.768;2023-04-15T07:58:11;9.65;;;6.53;;
4971;SDS011;2501;51.214;6.768;2023-04-15T08:00:42;9.90;;;6.70;;
4971;SDS011;2501;51.214;6.768;2023-04-15T08:03:11;7.93;;;5.70;;
4971;SDS011;2501;51.214;6.768;2023-04-15T08:05:39;9.95;;;6.25;;
4971;SDS011;2501;51.214;6.768;2023-04-15T08:08:08;7.10;;;6.30;;
4971;SDS011;2501;51.214;6.768;2023-04-15T08:10:37;6.65;;;5.85;;
4971;SDS011;2501;51.214;6.768;2023-04-15T08:13:05;6.68;;;4.63;;
4971;SDS011;2501;51.214;6.768;2023-04-15T08:15:34;8.52;;;5.15;;
4971;SDS011;2501;51.214;6.768;2023-04-15T08:18:05;7.32;;;4.93;;
4971;SDS011;2501;51.214;6.768;2023-04-15T08:20:34;6.10;;;5.50;;
4971;SDS011;2501;51.214;6.768;2023-04-15T08:23:02;8.85;;;5.82;;
4971;SDS011;2501;51.214;6.768;2023-04-15T08:25:31;6.75;;;5.00;;
4971;SDS011;2501;51.214;6.768;2023-04-15T08:28:02;5.82;;;5.13;;
4971;SDS011;2501;51.214;6.768;2023-04-15T08:30:31;6.05;;;5.45;;
4971;SDS011;2501;51.214;6.768;2023-04-15T08:33:00;7.80;;;6.20;;
4971;SDS011;2501;51.214;6.768;2023-04-15T08:35:31;7.50;;;5.53;;
4971;SDS011;2501;51.214;6.768;2023-04-15T08:37:59;7.10;;;5.70;;
4971;SDS011;2501;51.214;6.768;2023-04-15T08:40:29;7.88;;;5.00;;
4971;SDS011;2501;51.214;6.768;2023-04-15T08:43:10;8.13;;;5.37;;
4971;SDS011;2501;51.214;6.768;2023-04-15T08:45:42;6.88;;;4.88;;
4971;SDS011;2501;51.214;6.768;2023-04-15T08:48:13;7.60;;;6.00;;
4971;SDS011;2501;51.214;6.768;2023-04-15T08:50:46;6.15;;;5.20;;
4971;SDS011;2501;51.214;6.768;2023-04-15T08:53:15;9.30;;;5.22;;
4971;SDS011;2501;51.214;6.768;2023-04-15T08:55:45;7.70;;;5.88;;
4971;SDS011;2501;51.214;6.768;2023-04-15T08:58:18;11.38;;;5.78;;
4971;SDS011;2501;51.214;6.768;2023-04-15T09:00:46;9.15;;;5.30;;
4971;SDS011;2501;51.214;6.768;2023-04-15T09:03:14;8.30;;;6.28;;
4971;SDS011;2501;51.214;6.768;2023-04-15T09:05:46;9.82;;;5.90;;
4971;SDS011;2501;51.214;6.768;2023-04-15T09:08:15;8.82;;;5.95;;
4971;SDS011;2501;51.214;6.768;2023-04-15T09:10:43;7.35;;;6.15;;
4971;SDS011;2501;51.214;6.768;2023-04-15T09:13:12;7.55;;;5.70;;
4971;SDS011;2501;51.214;6.768;2023-04-15T09:15:41;8.05;;;6.00;;
4971;SDS011;2501;51.214;6.768;2023-04-15T09:18:10;9.68;;;6.40;;
4971;SDS011;2501;51.214;6.768;2023-04-15T09:20:39;8.60;;;6.35;;
4971;SDS011;2501;51.214;6.768;2023-04-15T09:23:14;7.95;;;6.18;;
4971;SDS011;2501;51.214;6.768;2023-04-15T09:25:42;12.00;;;5.18;;
4971;SDS011;2501;51.214;6.768;2023-04-15T09:28:13;5.60;;;4.63;;
4971;SDS011;2501;51.214;6.768;2023-04-15T09:30:41;4.40;;;4.00;;
4971;SDS011;2501;51.214;6.768;2023-04-15T09:33:13;3.83;;;3.53;;
4971;SDS011;2501;51.214;6.768;2023-04-15T09:35:42;3.17;;;2.90;;
4971;SDS011;2501;51.214;6.768;2023-04-15T09:38:26;3.47;;;3.17;;
4971;SDS011;2501;51.214;6.768;2023-04-15T09:40:55;2.80;;;2.40;;
4971;SDS011;2501;51.214;6.768;2023-04-15T09:43:36;3.30;;;3.00;;
4971;SDS011;2501;51.214;6.768;2023-04-15T09:46:05;3.37;;;3.17;;
4971;SDS011;2501;51.214;6.768;2023-04-15T09:48:35;3.92;;;3.50;;
4971;SDS011;2501;51.214;6.768;2023-04-15T09:51:03;3.90;;;3.33;;
4971;SDS011;2501;51.214;6.768;2023-04-15T09:53:35;4.10;;;2.60;;
4971;SDS011;2501;51.214;6.768;2023-04-15T09:56:05;3.33;;;3.03;;
4971;SDS011;2501;51.214;6.768;2023-04-15T09:58:35;3.83;;;3.50;;
4971;SDS011;2501;51.214;6.768;2023-04-15T10:01:05;5.32;;;4.20;;
4971;SDS011;2501;51.214;6.768;2023-04-15T10:03:35;4.00;;;3.70;;
4971;SDS011;2501;51.214;6.768;2023-04-15T10:06:06;5.40;;;3.63;;
4971;SDS011;2501;51.214;6.768;2023-04-15T10:08:38;4.80;;;4.40;;
4971;SDS011;2501;51.214;6.768;2023-04-15T10:11:08;3.83;;;3.53;;
4971;SDS011;2501;51.214;6.768;2023-04-15T10:13:38;9.20;;;3.67;;
4971;SDS011;2501;51.214;6.768;2023-04-15T10:16:09;7.35;;;3.72;;
4971;SDS011;2501;51.214;6.768;2023-04-15T10:18:41;4.63;;;4.00;;
4971;SDS011;2501;51.214;6.768;2023-04-15T10:21:11;4.55;;;4.15;;
4971;SDS011;2501;51.214;6.768;2023-04-15T10:23:45;4.30;;;3.90;;
4971;SDS011;2501;51.214;6.768;2023-04-15T10:26:14;4.20;;;3.90;;
4971;SDS011;2501;51.214;6.768;2023-04-15T10:28:44;4.28;;;3.88;;
4971;SDS011;2501;51.214;6.768;2023-04-15T10:31:13;4.80;;;4.30;;
4971;SDS011;2501;51.214;6.768;2023-04-15T10:33:44;4.10;;;3.80;;
4971;SDS011;2501;51.214;6.768;2023-04-15T10:36:14;5.05;;;3.80;;
4971;SDS011;2501;51.214;6.768;2023-04-15T10:38:45;3.42;;;3.13;;
4971;SDS011;2501;51.214;6.768;2023-04-15T10:41:14;3.88;;;3.58;;
4971;SDS011;2501;51.214;6.768;2023-04-15T10:43:46;4.00;;;3.80;;
4971;SDS011;2501;51.214;6.768;2023-04-15T10:46:23;4.00;;;3.70;;
4971;SDS011;2501;51.214;6.768;2023-04-15T10:49:07;4.13;;;3.70;;
4971;SDS011;2501;51.214;6.768;2023-04-15T10:51:37;3.60;;;3.40;;
4971;SDS011;2501;51.214;6.768;2023-04-15T10:54:15;3.60;;;3.33;;
4971;SDS011;2501;51.214;6.768;2023-04-15T10:57:06;3.70;;;3.50;;
4971;SDS011;2501;51.214;6.768;2023-04-15T10:59:36;7.10;;;3.40;;
4971;SDS011;2501;51.214;6.768;2023-04-15T11:02:06;4.47;;;4.13;;
4971;SDS011;2501;51.214;6.768;2023-04-15T11:04:50;4.63;;;4.17;;
4971;SDS011;2501;51.214;6.768;2023-04-15T11:13:22;4.40;;;3.00;;
4971;SDS011;2501;51.214;6.768;2023-04-15T11:15:56;3.30;;;3.10;;
4971;SDS011;2501;51.214;6.768;2023-04-15T11:18:27;7.13;;;3.85;;
4971;SDS011;2501;51.214;6.768;2023-04-15T11:20:58;4.30;;;4.00;;
4971;SDS011;2501;51.214;6.768;2023-04-15T11:23:29;5.40;;;4.50;;
4971;SDS011;2501;51.214;6.768;2023-04-15T11:25:59;4.05;;;3.78;;
4971;SDS011;2501;51.214;6.768;2023-04-15T11:28:32;4.30;;;3.88;;
4971;SDS011;2501;51.214;6.768;2023-04-15T11:31:07;6.60;;;4.97;;
4971;SDS011;2501;51.214;6.768;2023-04-15T11:33:44;7.10;;;5.00;;
4971;SDS011;2501;51.214;6.768;2023-04-15T11:36:13;5.20;;;4.70;;
4971;SDS011;2501;51.214;6.768;2023-04-15T11:38:42;5.45;;;4.40;;
4971;SDS011;2501;51.214;6.768;2023-04-15T11:41:12;4.93;;;4.38;;
4971;SDS011;2501;51.214;6.768;2023-04-15T11:43:44;5.10;;;4.55;;
4971;SDS011;2501;51.214;6.768;2023-04-15T11:46:12;4.47;;;4.10;;
4971;SDS011;2501;51.214;6.768;2023-04-15T11:48:41;4.80;;;4.13;;
4971;SDS011;2501;51.214;6.768;2023-04-15T11:51:11;4.18;;;3.88;;
4971;SDS011;2501;51.214;6.768;2023-04-15T11:53:41;4.77;;;4.27;;
4971;SDS011;2501;51.214;6.768;2023-04-15T11:56:17;4.20;;;3.90;;
4971;SDS011;2501;51.214;6.768;2023-04-15T11:58:50;4.00;;;3.45;;
4971;SDS011;2501;51.214;6.768;2023-04-15T12:01:20;4.55;;;3.53;;
4971;SDS011;2501;51.214;6.768;2023-04-15T12:03:59;4.20;;;3.80;;
4971;SDS011;2501;51.214;6.768;2023-04-15T12:06:37;5.22;;;4.82;;
4971;SDS011;2501;51.214;6.768;2023-04-15T12:09:09;7.18;;;6.47;;
4971;SDS011;2501;51.214;6.768;2023-04-15T12:11:40;8.60;;;7.60;;
4971;SDS011;2501;51.214;6.768;2023-04-15T12:14:15;13.30;;;10.00;;
4971;SDS011;2501;51.214;6.768;2023-04-15T12:16:46;12.52;;;10.35;;
4971;SDS011;2501;51.214;6.768;2023-04-15T12:19:17;11.68;;;9.23;;
4971;SDS011;2501;51.214;6.768;2023-04-15T12:21:49;12.52;;;9.40;;
4971;SDS011;2501;51.214;6.768;2023-04-15T12:24:19;11.07;;;8.03;;
4971;SDS011;2501;51.214;6.768;2023-04-15T12:26:49;11.32;;;8.55;;
4971;SDS011;2501;51.214;6.768;2023-04-15T12:29:24;10.85;;;8.80;;
4971;SDS011;2501;51.214;6.768;2023-04-15T12:31:57;10.03;;;8.50;;
4971;SDS011;2501;51.214;6.768;2023-04-15T12:34:32;10.13;;;7.30;;
4971;SDS011;2501;51.214;6.768;2023-04-15T12:37:01;7.22;;;6.53;;
4971;SDS011;2501;51.214;6.768;2023-04-15T12:39:34;8.48;;;6.30;;
4971;SDS011;2501;51.214;6.768;2023-04-15T12:42:03;8.00;;;7.07;;
4971;SDS011;2501;51.214;6.768;2023-04-15T12:44:35;10.32;;;7.50;;
4971;SDS011;2501;51.214;6.768;2023-04-15T12:47:05;8.00;;;7.10;;
4971;SDS011;2501;51.214;6.768;2023-04-15T12:49:34;8.13;;;6.60;;
4971;SDS011;2501;51.214;6.768;2023-04-15T12:52:03;7.38;;;5.70;;
4971;SDS011;2501;51.214;6.768;2023-04-15T12:54:32;8.75;;;5.82;;
4971;SDS011;2501;51.214;6.768;2023-04-15T12:57:01;6.63;;;5.55;;
4971;SDS011;2501;51.214;6.768;2023-04-15T12:59:30;9.00;;;6.40;;
4971;SDS011;2501;51.214;6.768;2023-04-15T13:02:01;7.80;;;6.28;;
4971;SDS011;2501;51.214;6.768;2023-04-15T13:04:29;7.55;;;6.60;;
4971;SDS011;2501;51.214;6.768;2023-04-15T13:06:57;8.97;;;6.77;;
4971;SDS011;2501;51.214;6.768;2023-04-15T13:09:26;7.57;;;5.70;;
4971;SDS011;2501;51.214;6.768;2023-04-15T13:11:55;6.90;;;5.72;;
4971;SDS011;2501;51.214;6.768;2023-04-15T13:14:23;6.82;;;5.65;;
4971;SDS011;2501;51.214;6.768;2023-04-15T13:16:52;7.17;;;6.23;;
4971;SDS011;2501;51.214;6.768;2023-04-15T13:19:23;8.18;;;6.28;;
4971;SDS011;2501;51.214;6.768;2023-04-15T13:21:51;9.68;;;6.70;;
4971;SDS011;2501;51.214;6.768;2023-04-15T13:24:20;9.30;;;7.40;;
4971;SDS011;2501;51.214;6.768;2023-04-15T13:26:48;11.13;;;7.55;;
4971;SDS011;2501;51.214;6.768;2023-04-15T13:29:17;9.10;;;6.55;;
4971;SDS011;2501;51.214;6.768;2023-04-15T13:31:46;7.35;;;5.38;;
4971;SDS011;2501;51.214;6.768;2023-04-15T13:34:14;6.28;;;4.93;;
4971;SDS011;2501;51.214;6.768;2023-04-15T13:36:45;5.75;;;5.05;;
4971;SDS011;2501;51.214;6.768;2023-04-15T13:39:14;5.63;;;5.13;;
4971;SDS011;2501;51.214;6.768;2023-04-15T13:41:42;6.55;;;5.05;;
4971;SDS011;2501;51.214;6.768;2023-04-15T13:44:12;5.80;;;5.22;;
4971;SDS011;2501;51.214;6.768;2023-04-15T13:46:41;7.78;;;4.78;;
4971;SDS011;2501;51.214;6.768;2023-04-15T13:49:09;5.85;;;5.15;;
4971;SDS011;2501;51.214;6.768;2023-04-15T13:51:37;4.78;;;4.28;;
4971;SDS011;2501;51.214;6.768;2023-04-15T13:54:09;6.53;;;5.10;;
4971;SDS011;2501;51.214;6.768;2023-04-15T13:56:37;10.93;;;5.07;;
4971;SDS011;2501;51.214;6.768;2023-04-15T13:59:05;8.30;;;6.18;;
4971;SDS011;2501;51.214;6.768;2023-04-15T14:01:34;9.90;;;5.85;;
4971;SDS011;2501;51.214;6.768;2023-04-15T14:04:03;7.50;;;5.00;;
4971;SDS011;2501;51.214;6.768;2023-04-15T14:06:32;6.03;;;4.68;;
4971;SDS011;2501;51.214;6.768;2023-04-15T14:09:00;10.60;;;4.90;;
4971;SDS011;2501;51.214;6.768;2023-04-15T14:11:31;6.13;;;4.80;;
4971;SDS011;2501;51.214;6.768;2023-04-15T14:14:00;7.40;;;4.30;;
4971;SDS011;2501;51.214;6.768;2023-04-15T14:16:30;4.57;;;3.50;;
4971;SDS011;2501;51.214;6.768;2023-04-15T14:18:59;4.20;;;3.15;;
4971;SDS011;2501;51.214;6.768;2023-04-15T14:21:28;6.65;;;3.35;;
4971;SDS011;2501;51.214;6.768;2023-04-15T14:23:56;3.37;;;3.07;;
4971;SDS011;2501;51.214;6.768;2023-04-15T14:26:25;4.20;;;3.50;;
4971;SDS011;2501;51.214;6.768;2023-04-15T14:28:56;8.90;;;3.33;;
4971;SDS011;2501;51.214;6.768;2023-04-15T14:31:24;4.05;;;3.75;;
4971;SDS011;2501;51.214;6.768;2023-04-15T14:33:53;10.10;;;4.90;;
4971;SDS011;2501;51.214;6.768;2023-04-15T14:36:21;6.78;;;4.10;;
4971;SDS011;2501;51.214;6.768;2023-04-15T14:38:50;3.40;;;3.20;;
4971;SDS011;2501;51.214;6.768;2023-04-15T14:41:18;4.00;;;3.70;;
4971;SDS011;2501;51.214;6.768;2023-04-15T14:43:47;4.50;;;4.10;;
4971;SDS011;2501;51.214;6.768;2023-04-15T14:46:18;7.65;;;3.97;;
4971;SDS011;2501;51.214;6.768;2023-04-15T14:48:47;5.60;;;3.80;;
4971;SDS011;2501;51.214;6.768;2023-04-15T14:51:15;4.72;;;3.60;;
4971;SDS011;2501;51.214;6.768;2023-04-15T14:53:44;6.35;;;3.55;;
4971;SDS011;2501;51.214;6.768;2023-04-15T14:56:13;4.30;;;3.95;;
4971;SDS011;2501;51.214;6.768;2023-04-15T14:58:41;7.28;;;3.40;;
4971;SDS011;2501;51.214;6.768;2023-04-15T15:01:10;3.35;;;3.10;;
4971;SDS011;2501;51.214;6.768;2023-04-15T15:03:41;4.03;;;3.33;;
4971;SDS011;2501;51.214;6.768;2023-04-15T15:06:09;3.80;;;3.13;;
4971;SDS011;2501;51.214;6.768;2023-04-15T15:08:37;2.90;;;2.70;;
4971;SDS011;2501;51.214;6.768;2023-04-15T15:11:06;3.88;;;3.40;;
4971;SDS011;2501;51.214;6.768;2023-04-15T15:13:34;3.70;;;3.00;;
4971;SDS011;2501;51.214;6.768;2023-04-15T15:16:03;4.70;;;3.40;;
4971;SDS011;2501;51.214;6.768;2023-04-15T15:18:32;3.50;;;3.20;;
4971;SDS011;2501;51.214;6.768;2023-04-15T15:21:03;4.90;;;3.20;;
4971;SDS011;2501;51.214;6.768;2023-04-15T15:23:31;4.57;;;3.10;;
4971;SDS011;2501;51.214;6.768;2023-04-15T15:26:00;6.03;;;3.15;;
4971;SDS011;2501;51.214;6.768;2023-04-15T15:28:28;3.65;;;3.17;;